Time;durP1;ratioP1;P1;durP2;ratioP2;P2;SDS_P1;SDS_P2;PMS_P1;PMS_P2;Temp;Humidity;BMP_temperature;BMP_pressure;BME280_temperature;BME280_humidity;BME280_pressure;Samples;Min_cycle;Max_cycle;Signal;HPM_P1;HPM_P2
2022/03/26 00:01:36;;;;;;;39.65;20.10;;;;;;;7.72;83.97;103287.03;4995572;28;20064;-67
2022/03/26 00:04:01;;;;;;;44.78;20.77;;;;;;;7.70;84.24;103286.88;5021280;28;20060;-67
2022/03/26 00:06:27;;;;;;;49.35;20.55;;;;;;;7.67;84.13;103293.66;5021691;28;20029;-67
2022/03/26 00:08:52;;;;;;;42.65;21.42;;;;;;;7.63;84.50;103282.03;5012240;28;20350;-67
2022/03/26 00:11:17;;;;;;;38.33;20.70;;;;;;;7.56;84.49;103295.53;5011964;28;20470;-66
2022/03/26 00:13:43;;;;;;;38.80;21.40;;;;;;;7.52;85.19;103290.91;5012339;28;20124;-66
2022/03/26 00:16:08;;;;;;;42.88;21.48;;;;;;;7.59;85.12;103295.75;5011765;28;20088;-69
2022/03/26 00:18:34;;;;;;;49.45;23.20;;;;;;;7.68;85.06;103293.75;5012227;28;20037;-67
2022/03/26 00:20:59;;;;;;;46.10;21.35;;;;;;;7.84;84.56;103300.03;5012275;28;20032;-67
2022/03/26 00:23:25;;;;;;;43.90;20.98;;;;;;;7.80;83.99;103296.31;5009378;28;20478;-67
2022/03/26 00:25:50;;;;;;;48.75;22.15;;;;;;;7.67;84.26;103291.94;5011147;28;20084;-67
2022/03/26 00:28:16;;;;;;;40.40;20.38;;;;;;;7.60;84.52;103292.34;5015647;28;20028;-67
2022/03/26 00:30:42;;;;;;;43.70;23.27;;;;;;;7.55;84.42;103293.72;5011678;28;20026;-67
2022/03/26 00:33:07;;;;;;;43.78;21.65;;;;;;;7.50;84.89;103289.88;5011821;28;20083;-67
2022/03/26 00:35:33;;;;;;;43.22;20.63;;;;;;;7.52;84.80;103288.28;5012249;28;20034;-66
2022/03/26 00:37:58;;;;;;;41.78;21.20;;;;;;;7.49;84.47;103293.28;5012083;28;20059;-67
2022/03/26 00:40:24;;;;;;;37.53;21.27;;;;;;;7.42;84.54;103297.22;5011711;28;20080;-67
2022/03/26 00:42:49;;;;;;;42.28;22.30;;;;;;;7.55;85.84;103291.09;5011827;28;20049;-67
2022/03/26 00:45:15;;;;;;;41.55;20.80;;;;;;;7.38;84.07;103290.84;5015268;28;20029;-66
2022/03/26 00:47:40;;;;;;;46.78;21.30;;;;;;;7.50;84.61;103295.09;5011599;28;20046;-67
2022/03/26 00:50:06;;;;;;;50.45;23.95;;;;;;;7.42;84.89;103308.59;5015499;28;20159;-66
2022/03/26 00:52:32;;;;;;;47.15;23.20;;;;;;;7.43;84.13;103301.63;5015242;28;20450;-67
2022/03/26 00:54:57;;;;;;;42.65;23.10;;;;;;;7.29;83.83;103305.94;5011937;28;20032;-67
2022/03/26 00:57:22;;;;;;;45.60;22.65;;;;;;;7.45;87.25;103304.34;5011042;28;20026;-67
2022/03/26 00:59:48;;;;;;;50.00;21.75;;;;;;;7.29;84.98;103310.28;5011573;28;20030;-67
2022/03/26 01:02:13;;;;;;;48.00;24.42;;;;;;;7.25;84.57;103314.38;4994435;28;20034;-66
2022/03/26 01:04:38;;;;;;;46.25;23.23;;;;;;;7.15;84.74;103306.66;5011203;28;20061;-66
2022/03/26 01:07:05;;;;;;;50.78;23.73;;;;;;;7.07;85.84;103314.88;5010176;28;20041;-66
2022/03/26 01:09:30;;;;;;;47.85;24.15;;;;;;;7.05;85.69;103311.28;5011576;28;20547;-67
2022/03/26 01:11:56;;;;;;;39.38;21.42;;;;;;;7.14;86.02;103312.72;4998471;28;20026;-67
2022/03/26 01:14:21;;;;;;;51.55;24.65;;;;;;;7.19;86.16;103313.94;5010326;28;20041;-67
2022/03/26 01:16:47;;;;;;;41.58;22.30;;;;;;;7.16;86.24;103309.41;5011590;28;20053;-67
2022/03/26 01:19:13;;;;;;;52.15;24.40;;;;;;;7.16;85.51;103308.47;5011469;28;20026;-67
2022/03/26 01:21:38;;;;;;;45.38;23.08;;;;;;;7.14;85.88;103315.34;5011687;28;20095;-68
2022/03/26 01:24:04;;;;;;;52.05;23.75;;;;;;;7.06;86.05;103307.81;5011138;28;20425;-67
2022/03/26 01:26:29;;;;;;;46.70;24.20;;;;;;;7.09;86.55;103302.84;5011469;28;20029;-66
2022/03/26 01:28:54;;;;;;;47.33;25.02;;;;;;;7.16;86.85;103303.25;5011107;28;20026;-67
2022/03/26 01:31:22;;;;;;;45.25;23.60;;;;;;;7.23;86.61;103297.63;5011261;28;20489;-67
2022/03/26 01:33:48;;;;;;;51.08;24.92;;;;;;;7.14;86.45;103303.13;5010536;28;20084;-66
2022/03/26 01:36:13;;;;;;;49.63;25.10;;;;;;;7.14;86.68;103304.88;5012791;28;20040;-67
2022/03/26 01:38:38;;;;;;;48.97;25.27;;;;;;;7.05;86.65;103300.78;5007481;28;20496;-67
2022/03/26 01:41:04;;;;;;;48.20;24.38;;;;;;;7.07;86.99;103304.41;5007667;28;20034;-67
2022/03/26 01:43:29;;;;;;;53.45;26.67;;;;;;;7.00;86.54;103306.47;5012356;28;20021;-67
2022/03/26 01:45:54;;;;;;;53.88;26.00;;;;;;;6.86;87.18;103309.06;5023429;28;20030;-66
2022/03/26 01:48:20;;;;;;;60.67;26.27;;;;;;;6.88;87.39;103307.44;5014270;28;20025;-66
2022/03/26 01:50:45;;;;;;;58.90;25.65;;;;;;;7.06;87.92;103302.59;5014644;28;20036;-67
2022/03/26 01:53:11;;;;;;;48.72;25.17;;;;;;;6.96;87.82;103304.44;5014763;28;20040;-68
2022/03/26 01:55:36;;;;;;;54.85;26.73;;;;;;;6.97;87.70;103301.94;5014699;28;20397;-67
2022/03/26 01:58:02;;;;;;;48.33;26.33;;;;;;;6.91;87.82;103307.66;5013815;28;20041;-67
2022/03/26 02:00:28;;;;;;;47.97;26.08;;;;;;;6.85;89.27;103295.84;4995957;28;20038;-67
2022/03/26 02:02:54;;;;;;;50.03;24.63;;;;;;;6.71;88.35;103297.47;5011489;28;20464;-68
2022/03/26 02:05:20;;;;;;;60.30;26.80;;;;;;;6.69;88.13;103289.50;5014738;28;20042;-67
2022/03/26 02:07:47;;;;;;;53.92;25.10;;;;;;;6.66;88.79;103294.53;5014122;28;20029;-67
2022/03/26 02:10:14;;;;;;;53.35;25.60;;;;;;;6.62;89.12;103287.25;5014334;28;20029;-67
2022/03/26 02:12:41;;;;;;;58.00;25.50;;;;;;;6.61;88.60;103290.66;5013613;28;20037;-67
2022/03/26 02:15:08;;;;;;;54.30;25.38;;;;;;;6.63;89.37;103296.00;5013667;28;20516;-67
2022/03/26 02:17:35;;;;;;;58.22;25.52;;;;;;;6.62;89.36;103292.50;5013878;28;20054;-66
2022/03/26 02:20:03;;;;;;;50.30;25.50;;;;;;;6.56;89.86;103292.03;4996980;28;20045;-66
2022/03/26 02:22:29;;;;;;;52.33;25.33;;;;;;;6.66;89.75;103286.69;5009779;28;20486;-66
2022/03/26 02:24:55;;;;;;;49.17;24.90;;;;;;;6.63;89.08;103290.78;5014230;28;20053;-66
2022/03/26 02:27:21;;;;;;;53.45;26.75;;;;;;;6.63;89.51;103283.81;5012690;28;20029;-66
2022/03/26 02:29:47;;;;;;;51.92;24.80;;;;;;;6.54;89.84;103277.94;5013565;28;20022;-67
2022/03/26 02:32:13;;;;;;;50.42;25.48;;;;;;;6.50;89.56;103278.53;5012186;28;20037;-67
2022/03/26 02:34:38;;;;;;;50.35;25.00;;;;;;;6.48;89.17;103278.38;5017424;28;20033;-67
2022/03/26 02:37:04;;;;;;;54.70;25.65;;;;;;;6.48;89.13;103277.50;5013778;28;20036;-67
2022/03/26 02:39:30;;;;;;;49.35;25.40;;;;;;;6.40;89.98;103287.38;5012724;28;20054;-66
2022/03/26 02:41:55;;;;;;;55.08;26.10;;;;;;;6.45;90.23;103285.13;5013138;28;20421;-67
2022/03/26 02:44:21;;;;;;;55.85;25.27;;;;;;;6.37;89.58;103290.69;5013407;28;20026;-67
2022/03/26 02:46:46;;;;;;;58.75;27.30;;;;;;;6.52;91.50;103290.00;5013591;28;20041;-66
2022/03/26 02:49:13;;;;;;;55.38;26.70;;;;;;;6.44;90.46;103280.69;4995526;28;20037;-67
2022/03/26 02:51:39;;;;;;;55.53;26.38;;;;;;;6.46;90.59;103289.53;5014625;28;20026;-68
2022/03/26 02:54:05;;;;;;;52.45;25.38;;;;;;;6.45;90.29;103285.13;5010988;28;20017;-67
2022/03/26 02:56:30;;;;;;;51.40;26.20;;;;;;;6.44;89.60;103280.69;4997933;28;20355;-67
2022/03/26 02:58:56;;;;;;;50.78;25.85;;;;;;;6.42;90.29;103280.56;5009780;28;20462;-67
2022/03/26 03:01:23;;;;;;;53.85;25.70;;;;;;;6.47;91.00;103278.28;5013721;28;20473;-68
2022/03/26 03:03:51;;;;;;;57.35;26.45;;;;;;;6.37;90.89;103285.44;5015281;28;20032;-66
2022/03/26 03:06:17;;;;;;;51.40;25.98;;;;;;;6.36;91.07;103278.44;5012889;28;20421;-66
2022/03/26 03:08:42;;;;;;;52.13;25.17;;;;;;;6.30;91.17;103285.81;5013069;28;20036;-67
2022/03/26 03:11:08;;;;;;;53.60;26.27;;;;;;;6.35;91.94;103286.16;5013037;28;20037;-67
2022/03/26 03:13:34;;;;;;;58.42;26.10;;;;;;;6.32;91.58;103283.31;5013315;28;20161;-67
2022/03/26 03:16:00;;;;;;;59.75;27.77;;;;;;;6.28;91.29;103282.19;4995358;28;20052;-67
2022/03/26 03:18:25;;;;;;;55.88;26.85;;;;;;;6.24;92.37;103278.44;5012958;28;20026;-67
2022/03/26 03:20:51;;;;;;;57.13;26.65;;;;;;;6.18;92.12;103279.69;5012889;28;20393;-67
2022/03/26 03:23:17;;;;;;;63.42;27.40;;;;;;;6.25;93.14;103281.94;5012352;28;20127;-67
2022/03/26 03:25:42;;;;;;;58.15;28.63;;;;;;;6.24;93.17;103282.75;5013189;28;20141;-67
2022/03/26 03:28:07;;;;;;;57.75;27.13;;;;;;;6.21;93.10;103287.75;5012462;28;20385;-67
2022/03/26 03:30:33;;;;;;;52.63;26.45;;;;;;;6.22;93.53;103284.34;5012870;28;20025;-66
2022/03/26 03:32:58;;;;;;;55.88;28.70;;;;;;;6.17;93.20;103283.09;5011874;28;20054;-67
2022/03/26 03:35:24;;;;;;;61.92;29.52;;;;;;;6.23;93.75;103291.41;5012277;28;20022;-66
2022/03/26 03:37:49;;;;;;;58.45;28.20;;;;;;;6.18;93.38;103284.91;5012667;28;20033;-67
2022/03/26 03:40:15;;;;;;;63.40;29.27;;;;;;;6.36;94.73;103291.50;4995051;28;20451;-67
2022/03/26 03:42:40;;;;;;;64.50;29.77;;;;;;;6.19;93.12;103289.34;5012725;28;20017;-66
2022/03/26 03:45:08;;;;;;;63.85;30.45;;;;;;;6.18;94.10;103287.53;5013547;28;20373;-66
2022/03/26 03:47:33;;;;;;;70.40;31.63;;;;;;;6.08;93.68;103292.06;5012307;28;20038;-67
2022/03/26 03:49:59;;;;;;;67.93;32.33;;;;;;;6.11;95.15;103290.50;5020400;28;20104;-66
2022/03/26 03:52:24;;;;;;;73.53;32.08;;;;;;;6.14;95.29;103296.84;5016257;28;20114;-67
2022/03/26 03:54:49;;;;;;;68.72;33.80;;;;;;;6.18;94.61;103293.66;5012673;28;20032;-67
2022/03/26 03:57:15;;;;;;;68.30;32.88;;;;;;;6.19;95.37;103292.84;5012395;28;20056;-66
2022/03/26 03:59:41;;;;;;;74.95;33.67;;;;;;;6.08;94.79;103297.28;5012090;28;20058;-66
2022/03/26 04:02:12;;;;;;;76.60;33.47;;;;;;;6.03;95.63;103290.81;5011965;28;20025;-66
2022/03/26 04:04:38;;;;;;;78.38;34.83;;;;;;;5.98;95.02;103294.81;5012604;28;20586;-66
2022/03/26 04:07:04;;;;;;;72.22;32.92;;;;;;;5.99;95.52;103300.94;5011226;28;20117;-67
2022/03/26 04:09:30;;;;;;;79.10;36.10;;;;;;;5.91;96.26;103305.53;5012545;28;20057;-66
2022/03/26 04:11:55;;;;;;;81.43;34.53;;;;;;;5.98;96.70;103301.72;5011912;28;20489;-67
2022/03/26 04:14:20;;;;;;;73.28;34.67;;;;;;;5.90;96.40;103296.81;5012267;28;20060;-67
2022/03/26 04:16:46;;;;;;;74.88;35.55;;;;;;;5.84;96.87;103295.44;5011875;28;20046;-66
2022/03/26 04:19:12;;;;;;;77.47;36.08;;;;;;;5.91;96.52;103292.47;5011854;28;20046;-66
2022/03/26 04:21:38;;;;;;;80.95;35.85;;;;;;;5.82;96.76;103297.00;5011888;28;20030;-66
2022/03/26 04:24:03;;;;;;;82.22;37.03;;;;;;;5.80;96.50;103289.03;5011994;28;20474;-66
2022/03/26 04:26:29;;;;;;;82.20;36.45;;;;;;;5.73;97.26;103292.00;5016079;28;20386;-66
2022/03/26 04:28:54;;;;;;;88.45;38.05;;;;;;;5.72;97.80;103300.63;5014347;28;20385;-66
2022/03/26 04:31:20;;;;;;;89.05;40.28;;;;;;;5.80;98.15;103303.81;5011805;28;20030;-67
2022/03/26 04:33:45;;;;;;;83.72;37.45;;;;;;;5.77;97.41;103299.28;5011986;28;20470;-66
2022/03/26 04:36:10;;;;;;;85.50;39.08;;;;;;;5.70;98.55;103305.72;5020885;28;20052;-66
2022/03/26 04:38:36;;;;;;;86.97;38.50;;;;;;;5.72;98.25;103306.78;5012141;28;20060;-66
2022/03/26 04:41:01;;;;;;;95.40;40.47;;;;;;;5.71;98.35;103304.94;4994271;28;20061;-67
2022/03/26 04:43:27;;;;;;;91.20;40.33;;;;;;;5.67;99.18;103309.81;5013050;28;20057;-66
2022/03/26 04:45:52;;;;;;;86.30;38.92;;;;;;;5.69;99.39;103305.63;5012466;28;20033;-67
2022/03/26 04:48:17;;;;;;;88.43;40.45;;;;;;;5.77;98.71;103307.13;5011918;28;20030;-68
2022/03/26 04:50:43;;;;;;;87.90;41.03;;;;;;;5.70;99.09;103313.56;5013288;28;20096;-66
2022/03/26 04:53:09;;;;;;;85.70;40.63;;;;;;;5.67;99.51;103307.19;5012296;28;20413;-67
2022/03/26 04:55:34;;;;;;;95.43;41.72;;;;;;;5.72;98.96;103309.38;5014576;28;20567;-67
2022/03/26 04:58:00;;;;;;;92.68;40.22;;;;;;;5.62;99.48;103305.94;5026831;28;20025;-66
2022/03/26 05:00:26;;;;;;;96.43;43.85;;;;;;;5.54;99.94;103315.81;5015207;28;20045;-68
2022/03/26 05:02:51;;;;;;;96.53;41.47;;;;;;;5.52;100.00;103313.06;5011714;28;20064;-67
2022/03/26 05:05:17;;;;;;;95.63;42.25;;;;;;;5.48;100.00;103310.09;5011307;28;20022;-67
2022/03/26 05:07:48;;;;;;;102.78;46.17;;;;;;;5.46;100.00;103306.47;5018846;28;20067;-66
2022/03/26 05:10:23;;;;;;;99.72;45.53;;;;;;;5.47;100.00;103308.28;5012386;28;20030;-66
2022/03/26 05:12:51;;;;;;;106.97;48.45;;;;;;;5.50;100.00;103305.91;5016128;28;20534;-67
2022/03/26 05:15:18;;;;;;;98.93;43.60;;;;;;;5.48;100.00;103308.41;5015725;28;20030;-67
2022/03/26 05:17:44;;;;;;;100.45;46.13;;;;;;;5.46;100.00;103304.75;5023153;28;20088;-67
2022/03/26 05:20:14;;;;;;;101.05;44.00;;;;;;;5.44;100.00;103313.25;5015401;28;20068;-67
2022/03/26 05:22:45;;;;;;;101.43;43.65;;;;;;;5.39;100.00;103305.09;5023315;28;20040;-68
2022/03/26 05:25:11;;;;;;;102.60;45.30;;;;;;;5.31;100.00;103307.09;5014059;28;20029;-66
2022/03/26 05:27:36;;;;;;;105.18;44.00;;;;;;;5.26;100.00;103311.03;5015094;28;20493;-67
2022/03/26 05:30:06;;;;;;;102.63;43.08;;;;;;;5.17;100.00;103313.84;5012263;28;20037;-67
2022/03/26 05:32:32;;;;;;;95.80;40.58;;;;;;;5.19;100.00;103313.97;5002463;28;20130;-67
2022/03/26 05:34:57;;;;;;;94.63;40.67;;;;;;;5.10;100.00;103308.00;5013840;28;20029;-66
2022/03/26 05:37:22;;;;;;;92.20;43.63;;;;;;;5.07;100.00;103316.50;5024453;28;20026;-67
2022/03/26 05:39:48;;;;;;;96.35;43.00;;;;;;;5.05;100.00;103321.63;5014395;28;20397;-67
2022/03/26 05:42:14;;;;;;;89.03;43.10;;;;;;;5.02;100.00;103318.78;5015783;28;20033;-66
2022/03/26 05:44:39;;;;;;;96.97;43.83;;;;;;;5.02;100.00;103313.56;5015524;28;20026;-66
2022/03/26 05:47:05;;;;;;;100.00;43.42;;;;;;;5.04;100.00;103325.00;5018965;28;20593;-68
2022/03/26 05:49:31;;;;;;;95.25;45.03;;;;;;;5.03;100.00;103324.88;5015545;28;20033;-68
2022/03/26 05:51:56;;;;;;;103.00;44.60;;;;;;;5.07;100.00;103322.66;5015746;28;20026;-68
2022/03/26 05:54:21;;;;;;;105.10;43.92;;;;;;;5.02;100.00;103324.00;5029119;28;20045;-67
2022/03/26 05:56:53;;;;;;;97.65;41.70;;;;;;;5.03;100.00;103324.88;5016557;28;20047;-67
2022/03/26 05:59:20;;;;;;;97.65;44.35;;;;;;;5.07;100.00;103324.34;5011737;28;20057;-67
2022/03/26 06:01:46;;;;;;;115.22;47.08;;;;;;;5.07;100.00;103322.66;5013243;28;20026;-67
2022/03/26 06:04:11;;;;;;;103.38;44.35;;;;;;;5.19;100.00;103327.00;5019252;28;20177;-68
2022/03/26 06:06:37;;;;;;;106.15;44.50;;;;;;;5.21;100.00;103328.06;5016094;28;20033;-67
2022/03/26 06:09:02;;;;;;;95.25;43.35;;;;;;;5.32;100.00;103335.03;5018596;28;20033;-68
2022/03/26 06:11:28;;;;;;;100.28;43.13;;;;;;;5.26;100.00;103333.63;5019473;28;20394;-68
2022/03/26 06:13:53;;;;;;;101.30;46.33;;;;;;;5.30;100.00;103335.69;5027677;28;20030;-68
2022/03/26 06:16:18;;;;;;;109.53;46.35;;;;;;;5.29;100.00;103337.41;5013886;28;20524;-69
2022/03/26 06:18:44;;;;;;;108.47;46.88;;;;;;;5.22;100.00;103338.63;5013603;28;20033;-68
2022/03/26 06:21:09;;;;;;;103.43;45.08;;;;;;;5.22;100.00;103342.91;5014547;28;20485;-68
2022/03/26 06:23:35;;;;;;;100.25;45.83;;;;;;;5.29;100.00;103340.00;5017998;28;20461;-68
2022/03/26 06:26:00;;;;;;;97.13;45.42;;;;;;;5.31;100.00;103337.53;5018109;28;20382;-68
2022/03/26 06:28:25;;;;;;;94.28;44.50;;;;;;;5.38;100.00;103343.31;5013104;28;20041;-68
2022/03/26 06:30:51;;;;;;;108.45;47.60;;;;;;;5.49;100.00;103335.44;5013979;28;20675;-69
2022/03/26 06:33:18;;;;;;;106.05;46.50;;;;;;;5.59;100.00;103345.81;5013515;28;20029;-69
2022/03/26 06:35:44;;;;;;;98.18;45.42;;;;;;;5.60;100.00;103346.69;5020684;28;20038;-69
2022/03/26 06:38:10;;;;;;;105.22;47.70;;;;;;;5.68;100.00;103341.28;5007626;28;20040;-67
2022/03/26 06:40:37;;;;;;;104.00;46.28;;;;;;;5.84;100.00;103342.47;5000701;28;20025;-67
2022/03/26 06:43:03;;;;;;;102.10;46.72;;;;;;;5.89;100.00;103339.41;5028307;28;20022;-67
2022/03/26 06:45:28;;;;;;;108.30;48.63;;;;;;;5.91;100.00;103344.72;4999207;28;20032;-68
2022/03/26 06:47:53;;;;;;;106.03;48.67;;;;;;;6.01;100.00;103341.13;5013380;28;20440;-67
2022/03/26 06:50:19;;;;;;;104.82;48.00;;;;;;;6.08;100.00;103346.97;5018001;28;20036;-67
2022/03/26 06:52:45;;;;;;;108.20;50.38;;;;;;;6.15;100.00;103347.44;5013815;28;20093;-69
2022/03/26 06:55:10;;;;;;;107.88;49.13;;;;;;;6.26;100.00;103351.75;5014073;28;20149;-67
2022/03/26 06:57:36;;;;;;;119.28;50.85;;;;;;;6.37;100.00;103349.94;5027837;28;20087;-68
2022/03/26 07:00:02;;;;;;;109.90;50.58;;;;;;;6.45;100.00;103347.91;5020576;28;20076;-68
2022/03/26 07:02:27;;;;;;;102.68;49.30;;;;;;;6.51;100.00;103350.94;5013791;28;20026;-68
2022/03/26 07:04:54;;;;;;;109.15;49.53;;;;;;;6.59;100.00;103344.56;5017469;28;20117;-68
2022/03/26 07:07:19;;;;;;;115.47;52.55;;;;;;;6.66;100.00;103352.09;5014250;28;20033;-68
2022/03/26 07:09:44;;;;;;;110.20;49.95;;;;;;;6.73;100.00;103354.34;5012939;28;20466;-68
2022/03/26 07:12:10;;;;;;;110.63;49.85;;;;;;;6.83;100.00;103361.16;5013053;28;20030;-70
2022/03/26 07:14:35;;;;;;;115.68;53.00;;;;;;;6.90;100.00;103359.88;5012697;28;20060;-70
2022/03/26 07:17:01;;;;;;;106.85;48.67;;;;;;;6.99;100.00;103360.56;5012728;28;20163;-70
2022/03/26 07:19:26;;;;;;;123.95;54.78;;;;;;;7.09;100.00;103367.34;5013201;28;20557;-70
2022/03/26 07:21:52;;;;;;;113.68;53.83;;;;;;;7.19;100.00;103371.53;5013537;28;20025;-70
2022/03/26 07:24:17;;;;;;;115.78;54.15;;;;;;;7.22;100.00;103367.44;5012691;28;20032;-70
2022/03/26 07:26:42;;;;;;;116.57;52.25;;;;;;;7.28;100.00;103377.44;4999091;28;20037;-70
2022/03/26 07:29:08;;;;;;;118.53;54.50;;;;;;;7.36;100.00;103371.03;5013061;28;20033;-71
2022/03/26 07:31:34;;;;;;;112.25;53.75;;;;;;;7.42;100.00;103376.72;5006717;28;20025;-71
2022/03/26 07:33:59;;;;;;;122.45;54.85;;;;;;;7.49;100.00;103377.13;5014815;28;20034;-72
2022/03/26 07:36:24;;;;;;;114.68;53.38;;;;;;;7.56;100.00;103382.00;4991888;28;20033;-71
2022/03/26 07:38:50;;;;;;;114.40;53.45;;;;;;;7.63;100.00;103386.88;5001442;28;20176;-71
2022/03/26 07:41:16;;;;;;;107.50;52.72;;;;;;;7.72;100.00;103386.63;5012010;28;20025;-71
2022/03/26 07:43:41;;;;;;;118.68;53.80;;;;;;;7.79;100.00;103390.56;5012557;28;20032;-70
2022/03/26 07:46:07;;;;;;;119.90;54.17;;;;;;;7.86;100.00;103384.94;4994468;28;20041;-70
2022/03/26 07:48:32;;;;;;;123.18;54.15;;;;;;;7.92;100.00;103388.91;5011289;28;20022;-70
2022/03/26 07:50:57;;;;;;;114.85;52.60;;;;;;;7.98;100.00;103384.88;5011670;28;20113;-71
2022/03/26 07:53:23;;;;;;;136.80;50.80;;;;;;;8.06;100.00;103397.69;4992901;28;20033;-71
2022/03/26 07:55:48;;;;;;;100.72;46.50;;;;;;;8.16;100.00;103390.44;5013186;28;20053;-70
2022/03/26 07:58:13;;;;;;;105.97;45.42;;;;;;;8.23;100.00;103390.97;5012231;28;20665;-71
2022/03/26 08:00:39;;;;;;;92.80;43.63;;;;;;;8.36;100.00;103400.56;5011446;28;20029;-70
2022/03/26 08:03:04;;;;;;;95.28;44.95;;;;;;;8.42;100.00;103395.75;5012003;28;20385;-70
2022/03/26 08:05:30;;;;;;;95.13;44.20;;;;;;;8.52;100.00;103404.22;4994913;28;20025;-70
2022/03/26 08:07:55;;;;;;;94.07;43.45;;;;;;;8.62;100.00;103404.03;5005260;28;20022;-70
2022/03/26 08:10:20;;;;;;;88.35;41.85;;;;;;;8.73;100.00;103408.28;5010973;28;20108;-70
2022/03/26 08:12:45;;;;;;;89.43;42.42;;;;;;;8.84;100.00;103410.69;5012268;28;20084;-68
2022/03/26 08:15:11;;;;;;;91.65;44.60;;;;;;;8.92;100.00;103409.47;5010785;28;20014;-69
2022/03/26 08:17:37;;;;;;;92.50;44.97;;;;;;;8.99;100.00;103410.78;5011431;28;20053;-68
2022/03/26 08:20:03;;;;;;;91.47;44.00;;;;;;;9.05;100.00;103409.47;5011968;28;20363;-68
2022/03/26 08:22:29;;;;;;;86.45;42.92;;;;;;;9.14;100.00;103411.75;5011454;28;20129;-68
2022/03/26 08:24:55;;;;;;;87.80;43.20;;;;;;;9.29;100.00;103417.09;5009555;28;20436;-68
2022/03/26 08:27:22;;;;;;;85.93;41.75;;;;;;;9.42;99.06;103414.41;5012024;28;20156;-68
2022/03/26 08:29:49;;;;;;;90.90;43.55;;;;;;;9.48;97.67;103413.00;5012100;28;20018;-68
2022/03/26 08:32:15;;;;;;;86.88;41.75;;;;;;;9.62;97.50;103412.16;5010871;28;20101;-68
2022/03/26 08:34:40;;;;;;;88.57;43.10;;;;;;;9.73;97.16;103421.59;5011157;28;20113;-68
2022/03/26 08:37:05;;;;;;;84.07;41.65;;;;;;;9.89;96.79;103422.50;5011356;28;20091;-77
2022/03/26 08:39:31;;;;;;;87.45;43.50;;;;;;;10.00;95.29;103412.66;5008515;28;20022;-68
2022/03/26 08:41:56;;;;;;;89.88;43.92;;;;;;;10.10;95.07;103410.66;5020399;28;20155;-68
2022/03/26 08:44:21;;;;;;;88.07;41.38;;;;;;;10.29;94.25;103417.03;5012580;28;20025;-68
2022/03/26 08:46:47;;;;;;;81.72;41.53;;;;;;;10.39;93.00;103411.53;4992549;28;20030;-69
2022/03/26 08:49:12;;;;;;;77.15;38.50;;;;;;;10.61;92.60;103410.16;4993741;28;20017;-70
2022/03/26 08:51:37;;;;;;;82.97;41.40;;;;;;;10.82;91.43;103407.84;5010696;28;20034;-69
2022/03/26 08:54:03;;;;;;;75.07;36.72;;;;;;;11.04;90.44;103409.97;5016121;28;20061;-69
2022/03/26 08:56:29;;;;;;;76.78;38.35;;;;;;;11.19;88.06;103404.66;5016219;28;20405;-70
2022/03/26 08:58:55;;;;;;;73.55;38.28;;;;;;;11.33;87.61;103397.50;5015363;28;20022;-69
2022/03/26 09:01:20;;;;;;;76.70;37.10;;;;;;;11.53;86.14;103405.56;5022999;28;20033;-70
2022/03/26 09:03:46;;;;;;;77.82;38.58;;;;;;;11.76;85.67;103399.78;5014896;28;20381;-70
2022/03/26 09:06:12;;;;;;;64.35;34.17;;;;;;;11.96;84.39;103392.97;5015324;28;20034;-70
2022/03/26 09:08:37;;;;;;;63.65;32.17;;;;;;;12.16;82.58;103408.91;4997725;28;20091;-70
2022/03/26 09:11:04;;;;;;;65.70;33.85;;;;;;;12.44;81.91;103408.59;5015495;28;20034;-70
2022/03/26 09:13:30;;;;;;;64.90;35.42;;;;;;;12.68;81.01;103407.97;5020735;28;20415;-70
2022/03/26 09:15:56;;;;;;;63.25;34.88;;;;;;;12.92;80.58;103417.94;5015728;28;20050;-70
2022/03/26 09:18:22;;;;;;;67.15;35.25;;;;;;;13.11;78.82;103406.50;5015262;28;20026;-70
2022/03/26 09:20:48;;;;;;;72.25;35.25;;;;;;;13.07;78.08;103423.06;5015960;28;20037;-70
2022/03/26 09:23:14;;;;;;;57.17;29.85;;;;;;;13.26;77.25;103417.78;5012868;28;20434;-70
2022/03/26 09:25:41;;;;;;;56.42;31.02;;;;;;;13.40;77.93;103422.88;5015547;28;20029;-70
2022/03/26 09:28:07;;;;;;;57.30;31.08;;;;;;;13.57;77.48;103421.00;5015522;28;20461;-70
2022/03/26 09:30:32;;;;;;;60.03;30.90;;;;;;;13.76;75.46;103417.44;5009643;28;20025;-69
2022/03/26 09:32:59;;;;;;;57.08;31.92;;;;;;;13.70;76.21;103411.88;5004810;28;20041;-69
2022/03/26 09:35:24;;;;;;;55.63;28.95;;;;;;;14.05;74.83;103413.44;5015058;28;20070;-69
2022/03/26 09:37:50;;;;;;;52.15;30.58;;;;;;;14.28;75.70;103417.09;4996996;28;20041;-69
2022/03/26 09:40:15;;;;;;;51.03;28.90;;;;;;;14.50;73.36;103410.94;5013279;28;20496;-68
2022/03/26 09:42:41;;;;;;;50.53;29.60;;;;;;;14.76;71.96;103413.78;5028640;28;20666;-68
2022/03/26 09:45:07;;;;;;;56.90;32.00;;;;;;;15.10;70.89;103415.13;5013673;28;20032;-68
2022/03/26 09:47:33;;;;;;;50.38;27.90;;;;;;;15.37;69.22;103416.13;5013837;28;20037;-68
2022/03/26 09:49:59;;;;;;;48.05;26.08;;;;;;;15.58;68.30;103421.34;5015609;28;20378;-69
2022/03/26 09:52:26;;;;;;;53.88;25.73;;;;;;;15.77;68.98;103410.56;5012254;28;20032;-70
2022/03/26 09:54:51;;;;;;;46.53;25.20;;;;;;;16.00;69.16;103415.81;5012818;28;20041;-70
2022/03/26 09:57:17;;;;;;;56.92;22.25;;;;;;;16.36;65.55;103425.94;5016789;28;20030;-72
2022/03/26 09:59:42;;;;;;;39.22;21.63;;;;;;;16.52;65.27;103416.69;5014172;28;20389;-72
2022/03/26 10:02:07;;;;;;;41.22;23.98;;;;;;;16.74;63.91;103425.38;5012936;28;20029;-71
2022/03/26 10:04:40;;;;;;;46.70;24.08;;;;;;;16.88;63.72;103420.53;5010278;28;20088;-71
2022/03/26 10:07:06;;;;;;;28.17;15.57;;;;;;;16.80;60.86;103414.94;4996956;28;20041;-71
2022/03/26 10:09:38;;;;;;;26.38;13.77;;;;;;;16.89;58.17;103415.28;5013543;28;20474;-72
2022/03/26 10:12:16;;;;;;;32.55;19.48;;;;;;;17.08;59.62;103411.44;5014419;28;20038;-71
2022/03/26 10:14:51;;;;;;;28.05;15.68;;;;;;;17.00;58.43;103413.84;5017223;28;20032;-71
2022/03/26 10:17:24;;;;;;;27.02;15.23;;;;;;;17.16;56.64;103406.38;5002207;28;20069;-71
2022/03/26 10:19:58;;;;;;;33.65;17.90;;;;;;;17.05;58.28;103406.03;5014098;28;21236;-71
2022/03/26 10:22:35;;;;;;;48.60;16.65;;;;;;;17.41;55.26;103405.31;5014575;28;20057;-71
2022/03/26 10:25:19;;;;;;;31.25;17.42;;;;;;;17.73;56.17;103402.69;5013456;28;20026;-72
2022/03/26 10:27:47;;;;;;;46.15;22.13;;;;;;;17.66;55.35;103398.94;5012979;28;20497;-71
2022/03/26 10:33:21;;;;;;;45.03;25.90;;;;;;;18.14;52.88;103397.59;5014477;28;20045;-71
2022/03/26 10:36:00;;;;;;;50.83;28.60;;;;;;;17.73;54.18;103392.03;4999005;28;20034;-71
2022/03/26 10:38:33;;;;;;;55.05;30.42;;;;;;;17.78;53.79;103387.72;5013947;28;20033;-70
2022/03/26 10:41:06;;;;;;;56.83;31.52;;;;;;;18.15;52.18;103377.16;4991956;28;20121;-71
2022/03/26 10:43:31;;;;;;;69.38;32.38;;;;;;;18.31;54.21;103386.44;5013712;28;20473;-70
2022/03/26 10:45:59;;;;;;;50.50;31.08;;;;;;;18.31;53.61;103383.78;5012288;28;20037;-70
2022/03/26 10:48:30;;;;;;;56.95;31.48;;;;;;;18.66;52.77;103383.75;5013467;28;20025;-71
2022/03/26 10:51:00;;;;;;;54.53;28.50;;;;;;;18.95;48.25;103381.81;4995315;28;20030;-70
2022/03/26 10:53:34;;;;;;;57.30;29.05;;;;;;;19.28;45.67;103374.50;5013165;28;20069;-71
2022/03/26 10:56:03;;;;;;;57.28;29.63;;;;;;;18.80;47.82;103371.66;5012274;28;20037;-71
2022/03/26 10:58:30;;;;;;;53.95;27.70;;;;;;;19.42;47.42;103372.97;5012447;28;20168;-70
2022/03/26 11:00:57;;;;;;;53.30;30.40;;;;;;;19.58;46.40;103370.63;5011133;28;20026;-70
2022/03/26 11:03:22;;;;;;;61.45;33.13;;;;;;;20.17;43.35;103365.50;5006151;28;20045;-70
2022/03/26 11:05:50;;;;;;;64.78;33.78;;;;;;;20.10;44.26;103362.69;5012952;28;20025;-70
2022/03/26 11:08:17;;;;;;;60.33;34.50;;;;;;;19.64;42.38;103357.38;5009465;28;20030;-70
2022/03/26 11:10:42;;;;;;;64.32;35.17;;;;;;;19.85;43.94;103360.50;5011986;28;20072;-70